EWG3AE LEPA-EDDP
Flight info
| Callsign | EWG3AE |
|---|---|
| Flight time | N/A |
| Altitude | 36000 |
| Route | ISTER DCT NIVDA DCT OMEDA DCT RAPUR DCT TORTU DCT ERTEV DCT GOLAS DCT TAGIP DCT BRENO DCT KONIN DCT ERNAS M726 LASGA T953 VOCIM T954 GOXLI GOXLI1V |
| Aircraft | A320/M-SDE3FGHIRWY/LB1 |
Departure
| Time | 2026-05-06 11:07 |
|---|---|
| Airport | Palma de Mallorca Airport (LEPA) |
Arrival
| Time | N/A |
|---|---|
| Airport | Leipzig/Halle Airport (EDDP) |
| Time | Latitude | Longitude | Altitude | Speed | Heading |
|---|---|---|---|---|---|
| 2026-05-06 10:23 | 39.54864 | 2.73532 | 39 ft | 0 kts | 48° |
| 2026-05-06 10:53 | 39.54858 | 2.73523 | 38 ft | 4 kts | 45° |
| 2026-05-06 10:54 | 39.54840 | 2.73503 | 38 ft | 3 kts | 26° |
| 2026-05-06 10:54 | 39.54818 | 2.73496 | 38 ft | 3 kts | 341° |
| 2026-05-06 10:54 | 39.54800 | 2.73508 | 35 ft | 3 kts | 329° |
| 2026-05-06 10:54 | 39.54779 | 2.73524 | 36 ft | 4 kts | 329° |
| 2026-05-06 10:55 | 39.54758 | 2.73541 | 37 ft | 3 kts | 329° |
| 2026-05-06 10:55 | 39.54745 | 2.73550 | 36 ft | 1 kts | 329° |
| 2026-05-06 10:58 | 39.54751 | 2.73546 | 38 ft | 2 kts | 329° |
| 2026-05-06 10:58 | 39.54772 | 2.73519 | 35 ft | 5 kts | 295° |
| 2026-05-06 10:58 | 39.54751 | 2.73474 | 38 ft | 8 kts | 200° |
| 2026-05-06 10:58 | 39.54694 | 2.73499 | 37 ft | 9 kts | 149° |
| 2026-05-06 10:59 | 39.54643 | 2.73540 | 37 ft | 8 kts | 143° |
| 2026-05-06 10:59 | 39.54609 | 2.73620 | 38 ft | 12 kts | 121° |
| 2026-05-06 10:59 | 39.54600 | 2.73727 | 37 ft | 14 kts | 58° |
| 2026-05-06 10:59 | 39.54655 | 2.73841 | 38 ft | 16 kts | 58° |
| 2026-05-06 11:00 | 39.54715 | 2.73968 | 38 ft | 17 kts | 58° |
| 2026-05-06 11:00 | 39.54776 | 2.74093 | 37 ft | 13 kts | 55° |
| 2026-05-06 11:00 | 39.54857 | 2.74103 | 37 ft | 14 kts | 327° |
| 2026-05-06 11:00 | 39.54943 | 2.74033 | 38 ft | 15 kts | 328° |
| 2026-05-06 11:01 | 39.55040 | 2.73958 | 36 ft | 17 kts | 329° |
| 2026-05-06 11:01 | 39.55147 | 2.73872 | 38 ft | 19 kts | 329° |
| 2026-05-06 11:01 | 39.55269 | 2.73776 | 38 ft | 22 kts | 328° |
| 2026-05-06 11:01 | 39.55407 | 2.73667 | 38 ft | 23 kts | 328° |
| 2026-05-06 11:02 | 39.55534 | 2.73567 | 37 ft | 17 kts | 328° |
| 2026-05-06 11:02 | 39.55624 | 2.73504 | 38 ft | 13 kts | 347° |
| 2026-05-06 11:02 | 39.55685 | 2.73562 | 38 ft | 11 kts | 58° |
| 2026-05-06 11:02 | 39.55687 | 2.73567 | 38 ft | 11 kts | 58° |
| 2026-05-06 11:03 | 39.55703 | 2.73601 | 38 ft | 10 kts | 58° |
| 2026-05-06 11:03 | 39.55737 | 2.73674 | 38 ft | 9 kts | 58° |
| 2026-05-06 11:03 | 39.55767 | 2.73736 | 38 ft | 8 kts | 58° |
| 2026-05-06 11:03 | 39.55811 | 2.73829 | 38 ft | 16 kts | 59° |
| 2026-05-06 11:04 | 39.55880 | 2.73977 | 38 ft | 19 kts | 57° |
| 2026-05-06 11:04 | 39.55947 | 2.74116 | 38 ft | 17 kts | 59° |
| 2026-05-06 11:04 | 39.56007 | 2.74237 | 38 ft | 15 kts | 47° |
| 2026-05-06 11:04 | 39.56092 | 2.74303 | 38 ft | 13 kts | 27° |
| 2026-05-06 11:05 | 39.56143 | 2.74337 | 37 ft | 7 kts | 26° |
| 2026-05-06 11:05 | 39.56185 | 2.74344 | 38 ft | 5 kts | 353° |
| 2026-05-06 11:05 | 39.56225 | 2.74300 | 38 ft | 9 kts | 290° |
| 2026-05-06 11:05 | 39.56208 | 2.74225 | 37 ft | 10 kts | 238° |
| 2026-05-06 11:06 | 39.56116 | 2.74035 | 38 ft | 56 kts | 239° |
| 2026-05-06 11:06 | 39.55795 | 2.73355 | 38 ft | 115 kts | 238° |
| 2026-05-06 11:06 | 39.55293 | 2.72290 | 60 ft | 159 kts | 237° |
| 2026-05-06 11:06 | 39.54695 | 2.71006 | 439 ft | 175 kts | 237° |
| 2026-05-06 11:07 | 39.54044 | 2.69583 | 954 ft | 191 kts | 239° |
| 2026-05-06 11:07 | 39.53377 | 2.68030 | 1517 ft | 202 kts | 240° |
| 2026-05-06 11:07 | 39.52689 | 2.66429 | 2115 ft | 206 kts | 238° |
| 2026-05-06 11:07 | 39.51935 | 2.64807 | 2618 ft | 217 kts | 236° |
| 2026-05-06 11:08 | 39.51090 | 2.63121 | 3195 ft | 227 kts | 235° |
| 2026-05-06 11:08 | 39.50235 | 2.61464 | 4195 ft | 217 kts | 231° |
| 2026-05-06 11:08 | 39.49029 | 2.60197 | 4627 ft | 237 kts | 206° |
| 2026-05-06 11:08 | 39.47620 | 2.59326 | 5006 ft | 255 kts | 206° |
| 2026-05-06 11:09 | 39.46001 | 2.58299 | 5730 ft | 263 kts | 207° |
| 2026-05-06 11:09 | 39.44351 | 2.57240 | 6529 ft | 267 kts | 206° |
| 2026-05-06 11:09 | 39.42712 | 2.56678 | 7219 ft | 274 kts | 180° |
| 2026-05-06 11:09 | 39.40861 | 2.57346 | 7802 ft | 285 kts | 150° |
| 2026-05-06 11:10 | 39.39360 | 2.59026 | 7967 ft | 287 kts | 135° |
| 2026-05-06 11:10 | 39.37921 | 2.60800 | 7950 ft | 285 kts | 140° |
| 2026-05-06 11:10 | 39.36491 | 2.62609 | 8273 ft | 291 kts | 135° |
| 2026-05-06 11:10 | 39.35106 | 2.64509 | 9168 ft | 290 kts | 138° |
| 2026-05-06 11:11 | 39.33645 | 2.66320 | 9977 ft | 292 kts | 140° |
| 2026-05-06 11:11 | 39.32132 | 2.68108 | 10392 ft | 309 kts | 141° |
| 2026-05-06 11:11 | 39.30478 | 2.70039 | 10591 ft | 332 kts | 141° |
| 2026-05-06 11:11 | 39.28720 | 2.72128 | 10743 ft | 356 kts | 139° |
| 2026-05-06 11:12 | 39.27284 | 2.74819 | 11095 ft | 377 kts | 114° |
| 2026-05-06 11:12 | 39.26813 | 2.78188 | 11642 ft | 389 kts | 94° |
| 2026-05-06 11:12 | 39.26757 | 2.81702 | 12255 ft | 394 kts | 92° |
| 2026-05-06 11:12 | 39.26760 | 2.85256 | 12868 ft | 399 kts | 89° |
| 2026-05-06 11:13 | 39.27159 | 2.88833 | 13454 ft | 407 kts | 77° |
| 2026-05-06 11:13 | 39.28075 | 2.92313 | 14018 ft | 413 kts | 66° |
| 2026-05-06 11:13 | 39.29431 | 2.95596 | 14553 ft | 417 kts | 59° |
| 2026-05-06 11:13 | 39.30908 | 2.98901 | 15098 ft | 421 kts | 60° |
| 2026-05-06 11:14 | 39.32372 | 3.02199 | 15662 ft | 425 kts | 60° |
| 2026-05-06 11:14 | 39.33845 | 3.05530 | 16200 ft | 430 kts | 60° |
| 2026-05-06 11:14 | 39.35334 | 3.08905 | 16747 ft | 434 kts | 60° |
| 2026-05-06 11:14 | 39.36834 | 3.12304 | 17284 ft | 438 kts | 60° |
| 2026-05-06 11:15 | 39.38352 | 3.15741 | 17831 ft | 442 kts | 60° |
| 2026-05-06 11:15 | 39.39885 | 3.19206 | 18333 ft | 446 kts | 60° |
| 2026-05-06 11:15 | 39.41433 | 3.22707 | 18799 ft | 450 kts | 60° |
| 2026-05-06 11:15 | 39.42993 | 3.26238 | 19253 ft | 454 kts | 60° |
| 2026-05-06 11:16 | 39.44586 | 3.29783 | 19673 ft | 458 kts | 59° |
| 2026-05-06 11:16 | 39.46221 | 3.33343 | 20105 ft | 462 kts | 58° |
| 2026-05-06 11:16 | 39.47880 | 3.36911 | 20537 ft | 465 kts | 58° |
| 2026-05-06 11:16 | 39.49559 | 3.40513 | 20932 ft | 469 kts | 58° |
| 2026-05-06 11:17 | 39.51245 | 3.44140 | 21331 ft | 472 kts | 59° |
| 2026-05-06 11:17 | 39.52937 | 3.47802 | 21719 ft | 476 kts | 59° |
| 2026-05-06 11:17 | 39.54635 | 3.51499 | 22102 ft | 479 kts | 59° |
| 2026-05-06 11:17 | 39.56337 | 3.55226 | 22476 ft | 482 kts | 59° |
| 2026-05-06 11:18 | 39.58046 | 3.58981 | 22847 ft | 485 kts | 59° |
| 2026-05-06 11:18 | 39.59767 | 3.62761 | 23199 ft | 488 kts | 59° |
| 2026-05-06 11:18 | 39.61498 | 3.66564 | 23554 ft | 491 kts | 59° |
| 2026-05-06 11:18 | 39.63241 | 3.70393 | 23841 ft | 494 kts | 59° |
| 2026-05-06 11:19 | 39.64992 | 3.74239 | 24146 ft | 496 kts | 59° |
| 2026-05-06 11:19 | 39.66747 | 3.78100 | 24443 ft | 499 kts | 59° |
| 2026-05-06 11:19 | 39.68513 | 3.81992 | 24734 ft | 501 kts | 59° |
| 2026-05-06 11:19 | 39.70285 | 3.85898 | 25019 ft | 503 kts | 59° |
| 2026-05-06 11:20 | 39.72060 | 3.89821 | 25298 ft | 505 kts | 59° |
| 2026-05-06 11:20 | 39.73841 | 3.93762 | 25573 ft | 507 kts | 59° |
| 2026-05-06 11:20 | 39.75629 | 3.97723 | 25840 ft | 509 kts | 59° |
| 2026-05-06 11:20 | 39.77417 | 4.01696 | 26101 ft | 511 kts | 59° |
| 2026-05-06 11:21 | 39.79215 | 4.05696 | 26350 ft | 513 kts | 59° |
| 2026-05-06 11:21 | 39.81017 | 4.09710 | 26599 ft | 515 kts | 59° |
| 2026-05-06 11:21 | 39.82828 | 4.13740 | 26843 ft | 517 kts | 59° |
| 2026-05-06 11:21 | 39.84640 | 4.17779 | 27076 ft | 518 kts | 59° |
| 2026-05-06 11:22 | 39.86460 | 4.21842 | 27301 ft | 520 kts | 60° |
| 2026-05-06 11:22 | 39.88287 | 4.25920 | 27523 ft | 522 kts | 59° |
| 2026-05-06 11:22 | 39.90115 | 4.29994 | 27744 ft | 523 kts | 59° |
| 2026-05-06 11:22 | 39.91957 | 4.34097 | 28054 ft | 523 kts | 59° |
| 2026-05-06 11:23 | 39.93790 | 4.38183 | 28360 ft | 522 kts | 59° |
| 2026-05-06 11:23 | 39.95622 | 4.42271 | 28655 ft | 522 kts | 60° |
| 2026-05-06 11:23 | 39.96856 | 4.45031 | 28856 ft | 522 kts | 60° |
| 2026-05-06 11:23 | 39.98680 | 4.49124 | 29159 ft | 522 kts | 60° |
| 2026-05-06 11:24 | 40.00499 | 4.53215 | 29459 ft | 521 kts | 60° |
| 2026-05-06 11:24 | 40.02316 | 4.57306 | 29761 ft | 521 kts | 60° |
| 2026-05-06 11:24 | 40.04133 | 4.61403 | 30058 ft | 521 kts | 60° |
| 2026-05-06 11:24 | 40.05975 | 4.65470 | 30317 ft | 521 kts | 56° |
| 2026-05-06 11:25 | 40.08124 | 4.69272 | 30572 ft | 520 kts | 49° |
| 2026-05-06 11:25 | 40.10439 | 4.72886 | 30829 ft | 519 kts | 49° |
| 2026-05-06 11:25 | 40.12755 | 4.76509 | 31098 ft | 519 kts | 49° |
| 2026-05-06 11:25 | 40.15062 | 4.80129 | 31363 ft | 518 kts | 49° |
| 2026-05-06 11:26 | 40.17364 | 4.83752 | 31629 ft | 518 kts | 49° |
| 2026-05-06 11:26 | 40.19661 | 4.87374 | 31894 ft | 517 kts | 49° |
| 2026-05-06 11:26 | 40.21955 | 4.90994 | 32161 ft | 517 kts | 49° |
| 2026-05-06 11:26 | 40.24245 | 4.94610 | 32431 ft | 516 kts | 49° |
| 2026-05-06 11:27 | 40.26530 | 4.98222 | 32692 ft | 515 kts | 49° |
| 2026-05-06 11:27 | 40.28819 | 5.01841 | 32956 ft | 515 kts | 49° |
| 2026-05-06 11:27 | 40.31102 | 5.05454 | 33224 ft | 515 kts | 49° |
| 2026-05-06 11:27 | 40.33379 | 5.09066 | 33484 ft | 514 kts | 49° |
| 2026-05-06 11:28 | 40.35657 | 5.12682 | 33748 ft | 514 kts | 49° |
| 2026-05-06 11:28 | 40.37931 | 5.16293 | 34003 ft | 513 kts | 49° |
| 2026-05-06 11:28 | 40.40202 | 5.19900 | 34237 ft | 513 kts | 49° |
| 2026-05-06 11:28 | 40.42471 | 5.23507 | 34459 ft | 512 kts | 49° |
| 2026-05-06 11:29 | 40.44729 | 5.27107 | 34684 ft | 512 kts | 49° |
| 2026-05-06 11:29 | 40.46993 | 5.30726 | 34894 ft | 511 kts | 49° |
| 2026-05-06 11:29 | 40.49248 | 5.34338 | 35102 ft | 511 kts | 49° |
| 2026-05-06 11:29 | 40.51501 | 5.37947 | 35305 ft | 511 kts | 49° |
| 2026-05-06 11:30 | 40.53752 | 5.41557 | 35503 ft | 510 kts | 49° |
| 2026-05-06 11:30 | 40.56033 | 5.45215 | 35695 ft | 510 kts | 49° |
| 2026-05-06 11:30 | 40.58251 | 5.48771 | 35891 ft | 509 kts | 49° |
| 2026-05-06 11:31 | 40.62755 | 5.56009 | 35981 ft | 513 kts | 49° |
| 2026-05-06 11:31 | 40.67271 | 5.63291 | 35986 ft | 513 kts | 49° |
| 2026-05-06 11:32 | 40.71810 | 5.70635 | 35983 ft | 513 kts | 49° |
| 2026-05-06 11:32 | 40.76320 | 5.77937 | 35991 ft | 513 kts | 49° |
| 2026-05-06 11:33 | 40.80820 | 5.85258 | 35984 ft | 513 kts | 49° |
| 2026-05-06 11:33 | 40.85314 | 5.92581 | 35991 ft | 513 kts | 50° |
| 2026-05-06 11:34 | 40.89809 | 5.99915 | 35990 ft | 513 kts | 50° |
| 2026-05-06 11:34 | 40.94302 | 6.07256 | 35993 ft | 513 kts | 50° |
| 2026-05-06 11:35 | 40.98789 | 6.14605 | 35996 ft | 514 kts | 50° |
| 2026-05-06 11:35 | 41.03269 | 6.21976 | 35997 ft | 514 kts | 50° |
| 2026-05-06 11:36 | 41.07737 | 6.29357 | 36000 ft | 514 kts | 50° |
| 2026-05-06 11:36 | 41.12208 | 6.36750 | 36003 ft | 514 kts | 50° |
| 2026-05-06 11:37 | 41.16678 | 6.44139 | 35997 ft | 513 kts | 50° |
| 2026-05-06 11:37 | 41.21143 | 6.51544 | 35997 ft | 513 kts | 50° |
| 2026-05-06 11:38 | 41.25601 | 6.58946 | 35999 ft | 513 kts | 50° |
| 2026-05-06 11:38 | 41.30128 | 6.66275 | 36000 ft | 513 kts | 49° |
| 2026-05-06 11:39 | 41.34700 | 6.73558 | 35998 ft | 513 kts | 49° |
| 2026-05-06 11:39 | 41.39262 | 6.80852 | 35995 ft | 512 kts | 49° |
| 2026-05-06 11:40 | 41.43790 | 6.88187 | 35993 ft | 512 kts | 50° |
| 2026-05-06 11:40 | 41.48304 | 6.95531 | 35991 ft | 512 kts | 50° |
| 2026-05-06 11:41 | 41.52820 | 7.02884 | 35988 ft | 512 kts | 50° |
| 2026-05-06 11:41 | 41.57331 | 7.10236 | 35986 ft | 512 kts | 50° |
| 2026-05-06 11:42 | 41.61840 | 7.17595 | 35985 ft | 512 kts | 50° |
| 2026-05-06 11:42 | 41.66336 | 7.24967 | 35986 ft | 511 kts | 50° |
| 2026-05-06 11:43 | 41.70821 | 7.32356 | 35977 ft | 511 kts | 50° |
| 2026-05-06 11:43 | 41.75303 | 7.39742 | 35976 ft | 511 kts | 50° |
| 2026-05-06 11:44 | 41.82035 | 7.50826 | 35972 ft | 511 kts | 50° |
| 2026-05-06 11:44 | 41.86481 | 7.58188 | 35974 ft | 511 kts | 50° |
| 2026-05-06 11:45 | 41.90931 | 7.65595 | 35962 ft | 508 kts | 51° |
| 2026-05-06 11:45 | 41.95371 | 7.72986 | 35955 ft | 508 kts | 51° |
| 2026-05-06 11:46 | 41.99812 | 7.80392 | 35956 ft | 509 kts | 51° |
| 2026-05-06 11:46 | 42.04245 | 7.87802 | 35958 ft | 508 kts | 51° |
| 2026-05-06 11:47 | 42.08672 | 7.95218 | 35957 ft | 509 kts | 51° |
| 2026-05-06 11:47 | 42.13092 | 8.02672 | 35956 ft | 509 kts | 51° |
| 2026-05-06 11:48 | 42.17510 | 8.10133 | 35959 ft | 509 kts | 51° |
| 2026-05-06 11:48 | 42.21925 | 8.17589 | 35958 ft | 509 kts | 51° |
| 2026-05-06 11:49 | 42.26368 | 8.25105 | 35957 ft | 509 kts | 51° |
| 2026-05-06 11:49 | 42.30887 | 8.32441 | 35959 ft | 508 kts | 44° |
| 2026-05-06 11:50 | 42.36479 | 8.38162 | 35956 ft | 503 kts | 26° |
| 2026-05-06 11:50 | 42.42809 | 8.42084 | 35954 ft | 501 kts | 20° |
| 2026-05-06 11:51 | 42.49193 | 8.45888 | 35952 ft | 501 kts | 20° |
| 2026-05-06 11:51 | 42.55574 | 8.49710 | 35956 ft | 501 kts | 21° |
| 2026-05-06 11:52 | 42.61950 | 8.53536 | 35957 ft | 501 kts | 21° |
| 2026-05-06 11:52 | 42.68333 | 8.57374 | 35955 ft | 501 kts | 21° |
| 2026-05-06 11:53 | 42.74713 | 8.61211 | 35957 ft | 502 kts | 21° |
| 2026-05-06 11:53 | 42.81102 | 8.65059 | 35958 ft | 502 kts | 21° |
| 2026-05-06 11:54 | 42.87488 | 8.68929 | 35954 ft | 503 kts | 21° |
| 2026-05-06 11:54 | 42.93871 | 8.72806 | 35954 ft | 503 kts | 21° |
| 2026-05-06 11:55 | 43.00315 | 8.76715 | 35945 ft | 503 kts | 21° |
| 2026-05-06 11:55 | 43.06710 | 8.80600 | 35940 ft | 503 kts | 21° |
| 2026-05-06 11:56 | 43.13098 | 8.84502 | 35937 ft | 503 kts | 21° |
| 2026-05-06 11:56 | 43.19490 | 8.88420 | 35939 ft | 503 kts | 21° |
| 2026-05-06 11:57 | 43.25891 | 8.92335 | 35937 ft | 504 kts | 21° |
| 2026-05-06 11:57 | 43.32283 | 8.96262 | 35935 ft | 504 kts | 21° |
| 2026-05-06 11:58 | 43.38686 | 9.00210 | 35933 ft | 504 kts | 21° |
| 2026-05-06 11:58 | 43.45084 | 9.04162 | 35924 ft | 504 kts | 21° |
| 2026-05-06 11:59 | 43.50452 | 9.07486 | 35916 ft | 505 kts | 21° |
| 2026-05-06 11:59 | 43.56808 | 9.11428 | 35907 ft | 505 kts | 21° |
| 2026-05-06 12:00 | 43.63222 | 9.15412 | 35905 ft | 506 kts | 21° |
| 2026-05-06 12:00 | 43.69638 | 9.19409 | 35906 ft | 506 kts | 21° |
| 2026-05-06 12:01 | 43.76060 | 9.23418 | 35901 ft | 506 kts | 21° |
| 2026-05-06 12:01 | 43.82484 | 9.27435 | 35897 ft | 507 kts | 21° |
| 2026-05-06 12:02 | 43.88912 | 9.31457 | 35897 ft | 507 kts | 21° |
| 2026-05-06 12:02 | 43.95389 | 9.35524 | 35904 ft | 508 kts | 21° |
| 2026-05-06 12:03 | 44.01783 | 9.39561 | 35903 ft | 508 kts | 21° |
| 2026-05-06 12:03 | 44.08260 | 9.43668 | 35904 ft | 508 kts | 21° |
| 2026-05-06 12:04 | 44.14694 | 9.47751 | 35910 ft | 508 kts | 21° |
| 2026-05-06 12:04 | 44.21132 | 9.51836 | 35912 ft | 508 kts | 21° |
| 2026-05-06 12:05 | 44.27564 | 9.55924 | 35911 ft | 508 kts | 21° |
| 2026-05-06 12:05 | 44.33995 | 9.60028 | 35911 ft | 508 kts | 21° |
| 2026-05-06 12:06 | 44.40421 | 9.64143 | 35913 ft | 508 kts | 21° |
| 2026-05-06 12:06 | 44.46846 | 9.68261 | 35906 ft | 508 kts | 21° |
| 2026-05-06 12:07 | 44.53273 | 9.72386 | 35902 ft | 509 kts | 22° |
| 2026-05-06 12:07 | 44.59719 | 9.76535 | 35881 ft | 510 kts | 22° |
| 2026-05-06 12:08 | 44.66163 | 9.80702 | 35871 ft | 510 kts | 22° |
| 2026-05-06 12:08 | 44.72616 | 9.84882 | 35863 ft | 511 kts | 22° |
| 2026-05-06 12:09 | 44.79030 | 9.89046 | 35867 ft | 511 kts | 22° |
| 2026-05-06 12:09 | 44.85492 | 9.93241 | 35861 ft | 511 kts | 22° |
| 2026-05-06 12:10 | 44.91998 | 9.97477 | 35867 ft | 512 kts | 22° |
| 2026-05-06 12:10 | 44.98452 | 10.01710 | 35853 ft | 511 kts | 22° |
| 2026-05-06 12:11 | 45.04904 | 10.05934 | 35862 ft | 511 kts | 22° |
| 2026-05-06 12:11 | 45.11358 | 10.10166 | 35871 ft | 511 kts | 22° |
| 2026-05-06 12:12 | 45.17806 | 10.14423 | 35870 ft | 511 kts | 22° |
| 2026-05-06 12:12 | 45.24253 | 10.18689 | 35871 ft | 512 kts | 22° |
| 2026-05-06 12:13 | 45.30707 | 10.22961 | 35867 ft | 512 kts | 22° |
| 2026-05-06 12:13 | 45.37172 | 10.27245 | 35861 ft | 513 kts | 22° |
| 2026-05-06 12:14 | 45.43642 | 10.31551 | 35884 ft | 514 kts | 22° |
| 2026-05-06 12:14 | 45.50121 | 10.35874 | 35883 ft | 515 kts | 22° |
| 2026-05-06 12:15 | 45.56604 | 10.40217 | 35886 ft | 515 kts | 22° |
| 2026-05-06 12:15 | 45.63089 | 10.44570 | 35895 ft | 515 kts | 22° |
| 2026-05-06 12:16 | 45.69567 | 10.48925 | 35892 ft | 514 kts | 22° |
| 2026-05-06 12:16 | 45.76041 | 10.53289 | 35892 ft | 515 kts | 22° |
| 2026-05-06 12:17 | 45.82521 | 10.57666 | 35898 ft | 515 kts | 22° |
| 2026-05-06 12:17 | 45.89003 | 10.62050 | 35902 ft | 515 kts | 22° |
| 2026-05-06 12:18 | 45.95485 | 10.66449 | 35903 ft | 515 kts | 22° |
| 2026-05-06 12:18 | 46.02013 | 10.70899 | 35906 ft | 515 kts | 22° |
| 2026-05-06 12:19 | 46.08486 | 10.75324 | 35910 ft | 515 kts | 23° |
| 2026-05-06 12:19 | 46.14955 | 10.79752 | 35931 ft | 514 kts | 23° |
| 2026-05-06 12:20 | 46.21371 | 10.84155 | 35952 ft | 513 kts | 23° |
| 2026-05-06 12:20 | 46.27808 | 10.88586 | 35970 ft | 512 kts | 23° |
| 2026-05-06 12:21 | 46.34282 | 10.93049 | 35975 ft | 511 kts | 23° |
| 2026-05-06 12:21 | 46.40691 | 10.97483 | 35971 ft | 510 kts | 23° |
| 2026-05-06 12:22 | 46.47090 | 11.01922 | 35962 ft | 509 kts | 23° |
| 2026-05-06 12:22 | 46.53469 | 11.06357 | 35904 ft | 508 kts | 23° |
| 2026-05-06 12:23 | 46.59843 | 11.10810 | 35893 ft | 508 kts | 23° |
| 2026-05-06 12:23 | 46.66214 | 11.15273 | 35890 ft | 508 kts | 23° |
| 2026-05-06 12:24 | 46.72722 | 11.19054 | 35893 ft | 500 kts | 6° |
| 2026-05-06 12:24 | 46.76148 | 11.19493 | 35887 ft | 492 kts | 355° |
| 2026-05-06 12:24 | 46.79573 | 11.19553 | 35874 ft | 491 kts | 355° |
| 2026-05-06 12:25 | 46.86411 | 11.19614 | 35865 ft | 492 kts | 355° |
| 2026-05-06 12:25 | 46.93252 | 11.19672 | 35849 ft | 492 kts | 355° |
| 2026-05-06 12:26 | 47.00098 | 11.19756 | 35815 ft | 492 kts | 355° |
| 2026-05-06 12:26 | 47.06935 | 11.19826 | 35792 ft | 492 kts | 355° |
| 2026-05-06 12:27 | 47.13780 | 11.19893 | 35773 ft | 492 kts | 355° |
| 2026-05-06 12:27 | 47.20668 | 11.19982 | 35780 ft | 493 kts | 356° |
| 2026-05-06 12:28 | 47.27530 | 11.20069 | 35786 ft | 493 kts | 355° |
| 2026-05-06 12:28 | 47.34390 | 11.20145 | 35791 ft | 494 kts | 356° |
| 2026-05-06 12:29 | 47.41261 | 11.20225 | 35778 ft | 493 kts | 356° |
| 2026-05-06 12:29 | 47.48128 | 11.20299 | 35770 ft | 493 kts | 356° |
| 2026-05-06 12:30 | 47.54995 | 11.20377 | 35759 ft | 494 kts | 356° |
| 2026-05-06 12:30 | 47.61872 | 11.20468 | 35769 ft | 494 kts | 356° |
| 2026-05-06 12:31 | 47.68744 | 11.20547 | 35778 ft | 494 kts | 356° |
| 2026-05-06 12:31 | 47.75623 | 11.20620 | 35789 ft | 494 kts | 356° |
| 2026-05-06 12:32 | 47.82507 | 11.20712 | 35793 ft | 495 kts | 356° |
| 2026-05-06 12:32 | 47.89389 | 11.20797 | 35802 ft | 495 kts | 356° |
| 2026-05-06 12:33 | 47.96276 | 11.20885 | 35804 ft | 494 kts | 356° |
| 2026-05-06 12:33 | 48.03148 | 11.20962 | 35811 ft | 494 kts | 356° |
| 2026-05-06 12:34 | 48.10022 | 11.21043 | 35811 ft | 493 kts | 356° |